Time;durP1;ratioP1;P1;durP2;ratioP2;P2;SDS_P1;SDS_P2;PMS_P1;PMS_P2;Temp;Humidity;BMP_temperature;BMP_pressure;BME280_temperature;BME280_humidity;BME280_pressure;Samples;Min_cycle;Max_cycle;Signal;HPM_P1;HPM_P2
2022/07/23 00:01:59;;;;;;;5.85;5.25;;;25.70;53.10;;;;;;5023018;28;20142;-47
2022/07/23 00:04:25;;;;;;;6.47;5.78;;;25.70;53.20;;;;;;5023202;28;20030;-48
2022/07/23 00:06:51;;;;;;;7.60;6.78;;;25.70;52.90;;;;;;5012206;28;20041;-48
2022/07/23 00:09:16;;;;;;;6.25;5.40;;;25.70;52.90;;;;;;5001852;28;20061;-48
2022/07/23 00:11:42;;;;;;;7.07;5.38;;;25.70;52.70;;;;;;5003072;28;20022;-48
2022/07/23 00:14:08;;;;;;;6.20;5.50;;;25.60;52.80;;;;;;5003732;28;20033;-47
2022/07/23 00:16:33;;;;;;;6.50;5.80;;;25.60;53.00;;;;;;5002624;28;20030;-47
2022/07/23 00:19:01;;;;;;;7.00;5.82;;;25.60;53.00;;;;;;5003833;28;20022;-47
2022/07/23 00:21:27;;;;;;;5.93;5.32;;;25.60;52.90;;;;;;5003086;28;20037;-47
2022/07/23 00:23:52;;;;;;;6.50;5.78;;;25.60;52.80;;;;;;5034975;28;20048;-47
2022/07/23 00:26:18;;;;;;;7.25;6.07;;;25.60;52.80;;;;;;5003186;28;20038;-47
2022/07/23 00:28:44;;;;;;;6.07;5.45;;;25.50;52.80;;;;;;5002889;28;20030;-48
2022/07/23 00:31:09;;;;;;;6.15;5.50;;;25.50;52.80;;;;;;5002942;28;20054;-47
2022/07/23 00:33:35;;;;;;;6.00;5.40;;;25.50;52.90;;;;;;5003552;28;20026;-47
2022/07/23 00:36:01;;;;;;;6.38;5.47;;;25.50;52.90;;;;;;5002293;28;20022;-47
2022/07/23 00:38:27;;;;;;;5.90;4.97;;;25.50;52.90;;;;;;5002651;28;20022;-47
2022/07/23 00:40:52;;;;;;;6.70;6.00;;;25.50;52.80;;;;;;5002171;28;20038;-48
2022/07/23 00:43:21;;;;;;;6.55;5.90;;;25.50;52.70;;;;;;5002902;28;20034;-47
2022/07/23 00:45:47;;;;;;;7.18;5.75;;;25.40;52.60;;;;;;5017883;28;20025;-48
2022/07/23 00:48:13;;;;;;;6.28;5.55;;;25.40;52.70;;;;;;5001051;28;20041;-48
2022/07/23 00:50:38;;;;;;;6.35;5.72;;;25.40;52.60;;;;;;5002536;28;20038;-47
2022/07/23 00:53:05;;;;;;;6.68;5.93;;;25.40;52.90;;;;;;5001321;28;20037;-48
2022/07/23 00:55:31;;;;;;;6.45;5.10;;;25.40;52.80;;;;;;5002278;28;20073;-47
2022/07/23 00:57:58;;;;;;;6.90;5.38;;;25.40;52.60;;;;;;5008316;28;20061;-48
2022/07/23 01:00:23;;;;;;;6.10;5.50;;;25.30;52.60;;;;;;5022641;28;20044;-47
2022/07/23 01:02:50;;;;;;;6.05;5.45;;;25.30;52.70;;;;;;5022742;28;20558;-48
2022/07/23 01:05:15;;;;;;;7.18;6.00;;;25.30;52.80;;;;;;5014611;28;20042;-47
2022/07/23 01:07:42;;;;;;;6.43;5.55;;;25.30;52.90;;;;;;5002235;28;20044;-47
2022/07/23 01:10:30;;;;;;;6.60;5.90;;;25.30;53.10;;;;;;5001659;28;20022;-48
2022/07/23 01:12:54;;;;;;;7.95;5.80;;;25.30;53.10;;;;;;5002835;28;20140;-47
2022/07/23 01:15:20;;;;;;;6.53;5.43;;;25.30;53.10;;;;;;5002404;28;20026;-48
2022/07/23 01:17:45;;;;;;;7.22;5.82;;;25.20;53.00;;;;;;5002715;28;20030;-48
2022/07/23 01:20:11;;;;;;;7.55;5.85;;;25.20;53.10;;;;;;5002998;28;20037;-47
2022/07/23 01:22:37;;;;;;;6.05;5.45;;;25.30;52.90;;;;;;5002333;28;20176;-47
2022/07/23 01:25:03;;;;;;;6.63;5.90;;;25.20;53.00;;;;;;5002169;28;20058;-47
2022/07/23 01:27:28;;;;;;;6.88;5.07;;;25.20;53.20;;;;;;5004408;28;20542;-47
2022/07/23 01:29:56;;;;;;;6.43;5.75;;;25.10;53.50;;;;;;5025725;28;20118;-47
2022/07/23 01:32:22;;;;;;;12.43;6.18;;;25.10;53.60;;;;;;5010537;28;20030;-48
2022/07/23 01:34:48;;;;;;;6.65;5.55;;;25.00;53.70;;;;;;5005488;28;20033;-48
2022/07/23 01:37:14;;;;;;;5.88;5.20;;;25.00;53.80;;;;;;5005564;28;20057;-47
2022/07/23 01:39:39;;;;;;;6.45;5.85;;;25.00;54.10;;;;;;5005157;28;20022;-47
2022/07/23 01:42:05;;;;;;;6.32;5.55;;;24.90;54.20;;;;;;5005135;28;20095;-47
2022/07/23 01:44:31;;;;;;;6.75;6.05;;;24.90;54.20;;;;;;5006046;28;20061;-47
2022/07/23 01:46:57;;;;;;;7.75;6.45;;;24.90;54.30;;;;;;5004958;28;20489;-47
2022/07/23 01:49:22;;;;;;;7.80;5.90;;;24.90;54.40;;;;;;5005855;28;20632;-47
2022/07/23 01:52:00;;;;;;;7.00;6.30;;;24.90;54.30;;;;;;5005627;28;20096;-47
2022/07/23 01:54:31;;;;;;;7.65;6.85;;;25.00;54.40;;;;;;5006285;28;20025;-47
2022/07/23 01:56:57;;;;;;;7.70;6.90;;;24.90;54.40;;;;;;5004914;28;20097;-47
2022/07/23 01:59:23;;;;;;;7.68;6.60;;;24.90;54.70;;;;;;5022000;28;20100;-47
2022/07/23 02:01:52;;;;;;;8.27;7.25;;;25.00;54.80;;;;;;5005813;28;20030;-47
2022/07/23 02:04:22;;;;;;;7.50;6.70;;;25.00;54.70;;;;;;5005343;28;20199;-47
2022/07/23 02:06:47;;;;;;;8.25;7.43;;;25.00;54.80;;;;;;5005673;28;20022;-47
2022/07/23 02:09:13;;;;;;;8.90;8.00;;;25.10;55.20;;;;;;5005199;28;20032;-47
2022/07/23 02:11:39;;;;;;;7.85;7.13;;;25.10;55.20;;;;;;5005583;28;20033;-49
2022/07/23 02:14:05;;;;;;;8.10;7.30;;;25.10;55.50;;;;;;5005775;28;20025;-47
2022/07/23 02:16:30;;;;;;;8.05;7.25;;;25.10;55.20;;;;;;5005131;28;20028;-48
2022/07/23 02:18:57;;;;;;;8.57;7.68;;;25.10;55.50;;;;;;5005803;28;20018;-47
2022/07/23 02:21:22;;;;;;;8.27;7.47;;;25.20;55.70;;;;;;5005187;28;20025;-47
2022/07/23 02:23:48;;;;;;;7.32;6.63;;;25.20;55.40;;;;;;5005608;28;20425;-48
2022/07/23 02:26:14;;;;;;;7.65;6.85;;;25.20;55.30;;;;;;5004847;28;20137;-47
2022/07/23 02:28:39;;;;;;;8.85;7.95;;;25.20;55.50;;;;;;5004520;28;20030;-47
2022/07/23 02:31:06;;;;;;;8.23;7.43;;;25.20;55.50;;;;;;5004928;28;20030;-47
2022/07/23 02:33:33;;;;;;;8.77;7.97;;;25.20;55.60;;;;;;5005051;28;20069;-48
2022/07/23 02:35:59;;;;;;;9.88;8.98;;;25.20;55.90;;;;;;5004080;28;20033;-48
2022/07/23 02:38:24;;;;;;;8.63;7.80;;;25.20;55.90;;;;;;5003755;28;20433;-47
2022/07/23 02:40:50;;;;;;;9.25;8.10;;;25.20;56.00;;;;;;5004531;28;20033;-47
2022/07/23 02:43:16;;;;;;;9.35;8.35;;;25.30;56.20;;;;;;5005066;28;20704;-47
2022/07/23 02:45:42;;;;;;;9.23;8.25;;;25.20;56.50;;;;;;5004594;28;20041;-48
2022/07/23 02:48:08;;;;;;;9.70;8.80;;;25.20;56.40;;;;;;5000099;28;20034;-46
2022/07/23 02:50:33;;;;;;;9.48;8.57;;;25.30;56.50;;;;;;4985043;28;20049;-47
2022/07/23 02:52:59;;;;;;;9.95;8.95;;;25.20;56.50;;;;;;4985597;28;20591;-47
2022/07/23 02:55:25;;;;;;;9.43;8.43;;;25.30;56.50;;;;;;4989922;28;20645;-47
2022/07/23 02:57:50;;;;;;;9.32;8.43;;;25.20;56.60;;;;;;5005068;28;20562;-47
2022/07/23 03:00:16;;;;;;;9.70;8.80;;;25.20;56.30;;;;;;5005085;28;20502;-47
2022/07/23 03:02:42;;;;;;;9.05;8.20;;;25.20;55.70;;;;;;5004182;28;20046;-47
2022/07/23 03:05:08;;;;;;;9.32;7.60;;;25.20;55.50;;;;;;5004561;28;20105;-47
2022/07/23 03:07:34;;;;;;;8.82;7.93;;;25.20;55.30;;;;;;5004042;28;20045;-47
2022/07/23 03:09:59;;;;;;;8.68;7.80;;;25.20;55.00;;;;;;5004543;28;20033;-47
2022/07/23 03:12:25;;;;;;;10.02;7.80;;;25.20;55.50;;;;;;5004319;28;20038;-47
2022/07/23 03:14:51;;;;;;;8.82;7.93;;;25.20;55.50;;;;;;5004392;28;20067;-48
2022/07/23 03:17:17;;;;;;;10.35;8.32;;;25.20;55.50;;;;;;5004043;28;20088;-47
2022/07/23 03:19:42;;;;;;;10.23;9.13;;;25.20;55.50;;;;;;5003679;28;20033;-48
2022/07/23 03:22:08;;;;;;;9.50;7.78;;;25.20;55.20;;;;;;5004007;28;20109;-46
2022/07/23 03:27:18;;;;;;;9.27;8.13;;;25.20;55.00;;;;;;4991796;28;20156;-47
2022/07/23 03:29:44;;;;;;;9.27;8.40;;;25.20;55.10;;;;;;5013344;28;20502;-48
2022/07/23 03:32:09;;;;;;;9.40;8.50;;;25.20;55.00;;;;;;5004004;28;20130;-47
2022/07/23 03:34:35;;;;;;;9.88;8.98;;;25.20;55.40;;;;;;5004290;28;20026;-48
2022/07/23 03:37:01;;;;;;;12.88;9.07;;;25.20;55.70;;;;;;5003656;28;20026;-47
2022/07/23 03:39:27;;;;;;;9.90;9.00;;;25.20;56.00;;;;;;5004095;28;20087;-48
2022/07/23 03:41:53;;;;;;;9.30;8.45;;;25.20;55.80;;;;;;5003399;28;20042;-47
2022/07/23 03:44:18;;;;;;;8.93;7.90;;;25.20;55.70;;;;;;5004025;28;20040;-47
2022/07/23 03:46:44;;;;;;;9.35;8.25;;;25.20;56.00;;;;;;5003111;28;20033;-47
2022/07/23 03:49:10;;;;;;;8.98;8.18;;;25.20;55.80;;;;;;4990805;28;20026;-47
2022/07/23 03:51:35;;;;;;;9.23;8.32;;;25.20;55.90;;;;;;4983191;28;20522;-47
2022/07/23 03:54:01;;;;;;;10.82;8.20;;;25.20;56.00;;;;;;4983672;28;20018;-47
2022/07/23 03:56:27;;;;;;;8.68;7.82;;;25.20;55.80;;;;;;4996423;28;20394;-48
2022/07/23 03:58:52;;;;;;;9.48;8.57;;;25.20;56.00;;;;;;5003224;28;20676;-47
2022/07/23 04:01:18;;;;;;;9.05;8.15;;;25.20;56.00;;;;;;5003518;28;20029;-47
2022/07/23 04:03:43;;;;;;;7.95;7.07;;;25.20;55.80;;;;;;5004096;28;20111;-48
2022/07/23 04:06:10;;;;;;;8.48;7.65;;;25.20;55.80;;;;;;5002694;28;20086;-49
2022/07/23 04:08:35;;;;;;;8.77;7.97;;;25.30;55.90;;;;;;5003368;28;20022;-47
2022/07/23 04:11:01;;;;;;;9.13;8.18;;;25.30;55.90;;;;;;5002869;28;20537;-48
2022/07/23 04:13:27;;;;;;;8.85;7.95;;;25.30;55.90;;;;;;5003407;28;20449;-47
2022/07/23 04:15:52;;;;;;;8.65;7.70;;;25.30;56.10;;;;;;5003065;28;20052;-50
2022/07/23 04:18:18;;;;;;;9.43;7.47;;;25.30;56.10;;;;;;5002430;28;20718;-46
2022/07/23 04:20:44;;;;;;;9.15;7.55;;;25.30;56.00;;;;;;5003563;28;20046;-47
2022/07/23 04:23:10;;;;;;;9.32;7.85;;;25.30;56.20;;;;;;5002751;28;20434;-47
2022/07/23 04:25:36;;;;;;;10.20;8.98;;;25.30;56.10;;;;;;5003012;28;20034;-48
2022/07/23 04:28:02;;;;;;;8.93;8.02;;;25.30;56.00;;;;;;5002174;28;20085;-48
2022/07/23 04:30:27;;;;;;;7.53;6.82;;;25.30;56.00;;;;;;5002660;28;20038;-47
2022/07/23 04:32:53;;;;;;;8.80;7.82;;;25.30;56.20;;;;;;5003100;28;20574;-46
2022/07/23 04:35:19;;;;;;;8.75;7.85;;;25.30;55.50;;;;;;5002080;28;20018;-48
2022/07/23 04:37:45;;;;;;;8.35;7.55;;;25.30;55.20;;;;;;5003226;28;20253;-47
2022/07/23 04:40:12;;;;;;;8.45;7.65;;;25.30;55.40;;;;;;5002346;28;20034;-47
2022/07/23 04:42:39;;;;;;;7.88;7.07;;;25.30;55.60;;;;;;5002992;28;20034;-47
2022/07/23 04:45:05;;;;;;;8.43;7.55;;;25.30;56.00;;;;;;5002328;28;20033;-47
2022/07/23 04:47:30;;;;;;;9.40;8.50;;;25.30;56.30;;;;;;5002665;28;20423;-47
2022/07/23 04:49:56;;;;;;;9.77;7.85;;;25.30;56.70;;;;;;5002970;28;20073;-46
2022/07/23 04:52:22;;;;;;;9.75;7.93;;;25.30;56.70;;;;;;5001225;28;20037;-47
2022/07/23 04:54:48;;;;;;;8.32;7.53;;;25.30;56.70;;;;;;5002633;28;20029;-48
2022/07/23 04:57:14;;;;;;;7.93;7.13;;;25.30;56.60;;;;;;5002667;28;20062;-48
2022/07/23 04:59:39;;;;;;;9.38;8.38;;;25.30;56.50;;;;;;5002750;28;20048;-47
2022/07/23 05:02:05;;;;;;;8.30;7.50;;;25.30;56.30;;;;;;5002920;28;20057;-47
2022/07/23 05:04:31;;;;;;;8.38;7.57;;;25.30;56.00;;;;;;5006852;28;20052;-47
2022/07/23 05:06:57;;;;;;;8.70;7.80;;;25.30;56.60;;;;;;5005855;28;20030;-47
2022/07/23 05:09:23;;;;;;;8.20;7.40;;;25.30;55.90;;;;;;5005745;28;20048;-47
2022/07/23 05:11:49;;;;;;;9.27;7.82;;;25.30;55.70;;;;;;5005986;28;20037;-47
2022/07/23 05:14:15;;;;;;;9.07;8.20;;;25.30;55.90;;;;;;5006262;28;20092;-47
2022/07/23 05:16:41;;;;;;;7.75;6.97;;;25.30;55.20;;;;;;5006315;28;20061;-47
2022/07/23 05:19:07;;;;;;;8.88;7.97;;;25.30;55.00;;;;;;5006300;28;20406;-46
2022/07/23 05:21:33;;;;;;;9.35;8.02;;;25.30;54.40;;;;;;5005447;28;20026;-47
2022/07/23 05:23:59;;;;;;;8.70;7.45;;;25.30;54.30;;;;;;5006821;28;20617;-47
2022/07/23 05:26:25;;;;;;;9.32;8.32;;;25.30;54.50;;;;;;5005634;28;20057;-47
2022/07/23 05:28:51;;;;;;;12.00;7.90;;;25.30;54.10;;;;;;5019127;28;20033;-47
2022/07/23 05:31:17;;;;;;;8.65;7.13;;;25.30;54.50;;;;;;5025688;28;20076;-47
2022/07/23 05:33:42;;;;;;;9.05;8.15;;;25.30;54.20;;;;;;5025617;28;20414;-47
2022/07/23 05:36:09;;;;;;;9.52;7.63;;;25.30;53.50;;;;;;5025115;28;20562;-47
2022/07/23 05:38:35;;;;;;;8.27;7.47;;;25.30;53.70;;;;;;5025392;28;20041;-47
2022/07/23 05:41:01;;;;;;;8.73;7.47;;;25.30;53.90;;;;;;5017089;28;20076;-47
2022/07/23 05:43:27;;;;;;;9.27;8.07;;;25.30;54.40;;;;;;5005277;28;20038;-48
2022/07/23 05:45:53;;;;;;;8.88;8.00;;;25.30;55.10;;;;;;5004946;28;20538;-47
2022/07/23 05:48:19;;;;;;;8.88;7.97;;;25.40;53.90;;;;;;4999467;28;20677;-47
2022/07/23 05:50:45;;;;;;;10.18;8.05;;;25.40;53.90;;;;;;4994274;28;20042;-47
2022/07/23 05:53:10;;;;;;;8.38;7.57;;;25.40;53.80;;;;;;5001800;28;20026;-47
2022/07/23 05:55:36;;;;;;;9.55;7.22;;;25.40;53.50;;;;;;5003343;28;20093;-48
2022/07/23 05:58:02;;;;;;;8.98;8.07;;;25.50;53.70;;;;;;5002901;28;20033;-47
2022/07/23 06:00:29;;;;;;;8.75;7.93;;;25.50;54.30;;;;;;5005717;28;20562;-46
2022/07/23 06:02:56;;;;;;;9.15;8.27;;;25.50;55.00;;;;;;5005153;28;20022;-46
2022/07/23 06:05:22;;;;;;;9.40;8.38;;;25.60;55.20;;;;;;5005112;28;20056;-47
2022/07/23 06:07:49;;;;;;;9.80;8.75;;;25.60;55.50;;;;;;5005603;28;20029;-47
2022/07/23 06:10:14;;;;;;;10.50;8.88;;;25.60;55.90;;;;;;5004028;28;20038;-47
2022/07/23 06:12:40;;;;;;;10.52;9.52;;;25.70;56.30;;;;;;5003090;28;20040;-47
2022/07/23 06:15:07;;;;;;;10.07;9.07;;;25.70;56.50;;;;;;5002179;28;20461;-47
2022/07/23 06:17:33;;;;;;;9.52;8.63;;;25.70;56.80;;;;;;5004631;28;20077;-48
2022/07/23 06:19:58;;;;;;;10.32;9.27;;;25.80;56.70;;;;;;5004231;28;20049;-47
2022/07/23 06:22:24;;;;;;;10.20;8.50;;;25.80;56.60;;;;;;5019053;28;20036;-47
2022/07/23 06:24:51;;;;;;;9.27;8.40;;;25.90;56.40;;;;;;5003967;28;20054;-48
2022/07/23 06:27:17;;;;;;;9.65;8.65;;;25.90;56.10;;;;;;5000787;28;20037;-47
2022/07/23 06:29:43;;;;;;;9.18;8.27;;;25.90;56.10;;;;;;5001861;28;20674;-48
2022/07/23 06:32:09;;;;;;;9.27;8.15;;;26.00;56.50;;;;;;4987871;28;20030;-47
2022/07/23 06:34:35;;;;;;;10.25;9.25;;;26.00;56.70;;;;;;4998853;28;20036;-48
2022/07/23 06:37:01;;;;;;;8.85;8.05;;;26.00;56.20;;;;;;5001774;28;20024;-48
2022/07/23 06:39:26;;;;;;;9.25;8.35;;;26.10;56.30;;;;;;5003091;28;20121;-46
2022/07/23 06:41:52;;;;;;;9.15;8.25;;;26.10;56.20;;;;;;5003362;28;20061;-48
2022/07/23 06:44:18;;;;;;;8.68;7.85;;;26.10;56.50;;;;;;5003976;28;20025;-48
2022/07/23 06:46:44;;;;;;;9.30;8.23;;;26.10;56.50;;;;;;5004128;28;20423;-48
2022/07/23 06:49:11;;;;;;;9.25;7.88;;;26.20;56.50;;;;;;5001981;28;20199;-47
2022/07/23 06:51:36;;;;;;;8.77;7.93;;;26.20;56.10;;;;;;5004211;28;20537;-47
2022/07/23 06:54:03;;;;;;;11.18;7.35;;;26.20;55.90;;;;;;5004009;28;20068;-48
2022/07/23 06:56:28;;;;;;;8.02;7.25;;;26.20;55.70;;;;;;4999598;28;20050;-47
2022/07/23 06:58:54;;;;;;;7.72;6.50;;;26.30;55.50;;;;;;5000884;28;20533;-49
2022/07/23 07:01:21;;;;;;;10.00;8.40;;;26.30;55.80;;;;;;5000840;28;20121;-48
2022/07/23 07:03:47;;;;;;;8.40;7.47;;;26.30;56.30;;;;;;5003889;28;20026;-47
2022/07/23 07:06:13;;;;;;;8.23;7.40;;;26.30;55.90;;;;;;5003531;28;20025;-48
2022/07/23 07:08:39;;;;;;;10.57;7.25;;;26.40;55.60;;;;;;5003561;28;20086;-48
2022/07/23 07:11:05;;;;;;;8.20;6.55;;;26.40;55.40;;;;;;5004131;28;20113;-48
2022/07/23 07:13:30;;;;;;;6.40;5.78;;;26.40;54.70;;;;;;5003759;28;20026;-48
2022/07/23 07:15:57;;;;;;;7.80;6.00;;;26.50;54.30;;;;;;5004075;28;20200;-47
2022/07/23 07:18:22;;;;;;;7.75;6.07;;;26.50;54.80;;;;;;5003812;28;20022;-48
2022/07/23 07:20:48;;;;;;;7.32;6.20;;;26.50;54.40;;;;;;5003657;28;20033;-47
2022/07/23 07:23:14;;;;;;;7.10;6.15;;;26.60;54.10;;;;;;5003798;28;20037;-48
2022/07/23 07:25:40;;;;;;;7.15;5.78;;;26.60;54.10;;;;;;5002966;28;20490;-47
2022/07/23 07:28:06;;;;;;;6.70;6.00;;;26.60;54.40;;;;;;5003901;28;20041;-48
2022/07/23 07:30:32;;;;;;;6.40;5.80;;;26.60;53.90;;;;;;5003542;28;20426;-47
2022/07/23 07:32:57;;;;;;;6.78;6.07;;;26.70;54.00;;;;;;5002142;28;20036;-48
2022/07/23 07:35:24;;;;;;;6.80;5.70;;;26.70;53.60;;;;;;5003665;28;20680;-47
2022/07/23 07:37:50;;;;;;;6.00;4.88;;;26.70;53.70;;;;;;4988929;28;20027;-47
2022/07/23 07:40:15;;;;;;;6.43;5.40;;;26.80;52.80;;;;;;5003957;28;20084;-49
2022/07/23 07:42:45;;;;;;;6.53;5.15;;;26.80;53.80;;;;;;5002964;28;20092;-49
2022/07/23 07:45:11;;;;;;;7.43;5.18;;;26.80;53.50;;;;;;5002016;28;20037;-47
2022/07/23 07:47:37;;;;;;;7.10;5.15;;;26.80;52.10;;;;;;5002361;28;20029;-49
2022/07/23 07:50:03;;;;;;;6.07;4.70;;;26.90;51.20;;;;;;5003513;28;20726;-49
2022/07/23 07:52:28;;;;;;;5.80;4.95;;;26.90;50.70;;;;;;5003209;28;20104;-48
2022/07/23 07:54:54;;;;;;;8.90;4.85;;;26.90;50.80;;;;;;5002950;28;20038;-48
2022/07/23 07:57:20;;;;;;;6.47;5.07;;;26.90;50.60;;;;;;5003165;28;20663;-47
2022/07/23 07:59:45;;;;;;;5.57;4.35;;;27.00;51.70;;;;;;5023347;28;20781;-49
2022/07/23 08:02:11;;;;;;;5.15;4.40;;;27.00;51.40;;;;;;5023277;28;20033;-50
2022/07/23 08:04:36;;;;;;;6.47;5.00;;;27.10;51.00;;;;;;5023475;28;20405;-49
2022/07/23 08:07:02;;;;;;;5.80;4.75;;;27.10;51.30;;;;;;5021104;28;20055;-49
2022/07/23 08:09:28;;;;;;;4.88;4.25;;;27.10;50.80;;;;;;5015271;28;20033;-48
2022/07/23 08:11:54;;;;;;;5.53;4.45;;;27.10;50.20;;;;;;4999389;28;20040;-49
2022/07/23 08:14:19;;;;;;;5.60;4.63;;;27.10;50.70;;;;;;5002128;28;20117;-50
2022/07/23 08:16:45;;;;;;;6.95;5.20;;;27.10;50.60;;;;;;5002025;28;20104;-49
2022/07/23 08:19:11;;;;;;;5.80;4.68;;;27.10;50.40;;;;;;5003060;28;20029;-49
2022/07/23 08:21:36;;;;;;;6.72;4.95;;;27.20;50.00;;;;;;5002506;28;20030;-48
2022/07/23 08:24:02;;;;;;;5.43;4.63;;;27.20;50.10;;;;;;5002886;28;20033;-49
2022/07/23 08:26:28;;;;;;;6.47;4.60;;;27.20;50.30;;;;;;5002682;28;20029;-49
2022/07/23 08:28:53;;;;;;;5.20;4.70;;;27.20;50.80;;;;;;5009839;28;20031;-49
2022/07/23 08:31:19;;;;;;;5.97;5.38;;;27.30;49.80;;;;;;5002875;28;20033;-47
2022/07/23 08:33:45;;;;;;;5.88;4.55;;;27.30;50.00;;;;;;5003019;28;20037;-47
2022/07/23 08:36:10;;;;;;;6.40;5.32;;;27.30;49.90;;;;;;5002358;28;20022;-49
2022/07/23 08:38:36;;;;;;;4.78;4.28;;;27.30;50.10;;;;;;5007216;28;20025;-48
2022/07/23 08:41:04;;;;;;;6.60;4.40;;;27.30;49.80;;;;;;5004660;28;20061;-48
2022/07/23 08:43:32;;;;;;;7.40;4.60;;;27.40;49.60;;;;;;5006942;28;20717;-48
2022/07/23 08:46:00;;;;;;;6.88;5.50;;;27.40;49.50;;;;;;5008218;28;20041;-48
2022/07/23 08:48:29;;;;;;;6.28;5.13;;;27.40;49.40;;;;;;5008320;28;20030;-48
2022/07/23 08:50:57;;;;;;;5.00;4.50;;;27.40;49.20;;;;;;5008538;28;20038;-48
2022/07/23 08:53:25;;;;;;;6.43;5.07;;;27.40;49.20;;;;;;5007718;28;20025;-49
2022/07/23 08:55:55;;;;;;;5.50;4.88;;;27.40;49.00;;;;;;5006311;28;20155;-49
2022/07/23 08:58:22;;;;;;;6.32;4.95;;;27.40;49.00;;;;;;5009055;28;20022;-48
2022/07/23 09:00:49;;;;;;;5.45;4.95;;;27.50;49.30;;;;;;5008634;28;20065;-51
2022/07/23 09:03:20;;;;;;;6.15;4.90;;;27.50;49.20;;;;;;5005536;28;20038;-48
2022/07/23 09:05:47;;;;;;;5.82;5.22;;;27.50;49.50;;;;;;5006863;28;20022;-48
2022/07/23 09:08:14;;;;;;;6.13;5.07;;;27.50;48.80;;;;;;5008977;28;20022;-47
2022/07/23 09:10:54;;;;;;;5.55;4.55;;;27.50;48.90;;;;;;5008330;28;20440;-48
2022/07/23 09:13:34;;;;;;;6.05;4.93;;;27.60;48.40;;;;;;5040885;28;20517;-48
2022/07/23 09:16:07;;;;;;;5.82;4.82;;;27.60;49.00;;;;;;5005607;28;20022;-47
2022/07/23 09:18:34;;;;;;;6.25;5.18;;;27.60;49.20;;;;;;5004044;28;20022;-47
2022/07/23 09:21:15;;;;;;;6.15;5.00;;;27.60;48.90;;;;;;5008030;28;20083;-49
2022/07/23 09:24:00;;;;;;;5.85;5.20;;;27.60;48.50;;;;;;5008675;28;20034;-48
2022/07/23 09:26:37;;;;;;;6.18;4.90;;;27.60;48.70;;;;;;5008035;28;20109;-48
2022/07/23 09:29:19;;;;;;;5.55;5.00;;;27.60;48.70;;;;;;5024051;28;20032;-48
2022/07/23 09:31:53;;;;;;;6.10;4.73;;;27.60;48.70;;;;;;5028505;28;20087;-48
2022/07/23 09:34:35;;;;;;;6.15;4.70;;;27.70;48.70;;;;;;5027856;28;20021;-47
2022/07/23 09:37:18;;;;;;;5.57;4.97;;;27.70;48.40;;;;;;5028174;28;20509;-48
2022/07/23 09:39:45;;;;;;;5.80;5.20;;;27.70;48.30;;;;;;5021140;28;20036;-47
2022/07/23 09:42:25;;;;;;;6.47;5.88;;;27.80;48.60;;;;;;5006305;28;20520;-48
2022/07/23 09:44:53;;;;;;;5.72;5.13;;;27.80;49.00;;;;;;5005262;28;20030;-48
2022/07/23 09:47:20;;;;;;;5.75;5.20;;;27.80;48.50;;;;;;5007112;28;20084;-49
2022/07/23 09:50:04;;;;;;;8.82;6.07;;;27.90;48.90;;;;;;5005231;28;20497;-48
2022/07/23 09:52:32;;;;;;;7.35;5.38;;;27.90;48.50;;;;;;5005619;28;20065;-48
2022/07/23 09:55:05;;;;;;;7.50;5.55;;;27.90;48.60;;;;;;5005545;28;20557;-47
2022/07/23 09:57:32;;;;;;;6.60;5.80;;;28.00;48.80;;;;;;5007340;28;20516;-48
2022/07/23 10:00:01;;;;;;;7.03;5.47;;;28.00;48.60;;;;;;5020535;28;20022;-47
2022/07/23 10:02:31;;;;;;;6.10;5.38;;;28.00;48.40;;;;;;5002872;28;20026;-47
2022/07/23 10:04:57;;;;;;;6.13;5.45;;;28.00;48.80;;;;;;5001185;28;20405;-47
2022/07/23 10:07:26;;;;;;;8.13;5.40;;;28.10;48.90;;;;;;4997774;28;20581;-47
2022/07/23 10:09:53;;;;;;;9.63;5.68;;;28.10;49.00;;;;;;5004419;28;20137;-47
2022/07/23 10:14:49;;;;;;;7.53;5.13;;;28.00;49.50;;;;;;5002725;28;20025;-48
2022/07/23 10:17:15;;;;;;;8.57;5.88;;;28.00;49.20;;;;;;5004573;28;20025;-47
2022/07/23 10:19:42;;;;;;;8.73;5.20;;;28.00;49.40;;;;;;4999067;28;20569;-47
2022/07/23 10:22:18;;;;;;;7.85;5.15;;;28.00;50.20;;;;;;5002201;28;20034;-48
2022/07/23 10:25:07;;;;;;;7.40;5.35;;;28.00;50.50;;;;;;5002291;28;20246;-48
2022/07/23 10:28:10;;;;;;;9.07;5.40;;;28.00;50.60;;;;;;5003586;28;20041;-46
2022/07/23 10:31:03;;;;;;;9.65;6.20;;;28.00;50.70;;;;;;5003860;28;20030;-47
2022/07/23 10:34:07;;;;;;;7.15;5.55;;;27.90;50.50;;;;;;5003558;28;20482;-47
2022/07/23 10:36:47;;;;;;;7.90;4.70;;;27.90;50.20;;;;;;4988886;28;20050;-47
2022/07/23 10:39:33;;;;;;;6.40;4.53;;;27.90;50.00;;;;;;5003826;28;20042;-47
2022/07/23 10:42:16;;;;;;;6.72;5.18;;;27.90;49.70;;;;;;5000682;28;20032;-47
2022/07/23 10:44:44;;;;;;;5.90;4.97;;;27.90;49.70;;;;;;5003046;28;20030;-47
2022/07/23 10:47:22;;;;;;;6.05;4.47;;;27.90;49.50;;;;;;5002526;28;20116;-48
2022/07/23 10:49:48;;;;;;;5.85;4.45;;;27.90;49.60;;;;;;5002962;28;20524;-47
2022/07/23 10:52:14;;;;;;;6.43;4.53;;;27.90;49.60;;;;;;5004354;28;20065;-48
2022/07/23 10:55:15;;;;;;;5.97;4.40;;;27.90;49.40;;;;;;5004615;28;20022;-47
2022/07/23 10:57:50;;;;;;;5.28;4.53;;;27.90;49.50;;;;;;5007984;28;20517;-48
2022/07/23 11:00:21;;;;;;;6.55;4.60;;;27.90;49.50;;;;;;5023037;28;20108;-47
2022/07/23 11:02:48;;;;;;;5.80;4.60;;;27.90;49.60;;;;;;5023800;28;20109;-47
2022/07/23 11:05:18;;;;;;;5.50;4.35;;;27.90;49.90;;;;;;5006499;28;20052;-48
2022/07/23 11:08:07;;;;;;;6.45;4.45;;;27.90;51.10;;;;;;4986050;28;20034;-48
2022/07/23 11:11:08;;;;;;;6.57;4.80;;;27.90;51.50;;;;;;4992406;28;20030;-48
2022/07/23 11:13:44;;;;;;;6.13;4.55;;;27.90;51.40;;;;;;5031098;28;20056;-48
2022/07/23 11:16:16;;;;;;;5.25;4.38;;;27.90;50.90;;;;;;4999960;28;20102;-47
2022/07/23 11:18:47;;;;;;;7.15;5.05;;;27.90;50.90;;;;;;5000677;28;20029;-47
2022/07/23 11:21:31;;;;;;;6.25;4.32;;;27.90;50.90;;;;;;4997028;28;20153;-48
2022/07/23 11:24:03;;;;;;;8.65;4.65;;;27.90;50.90;;;;;;4998417;28;20014;-48
2022/07/23 11:26:43;;;;;;;6.60;5.17;;;27.90;52.40;;;;;;5001884;28;20033;-48
2022/07/23 11:29:35;;;;;;;6.35;4.60;;;27.90;52.40;;;;;;5003737;28;20088;-49
2022/07/23 11:32:23;;;;;;;7.57;4.32;;;28.00;52.60;;;;;;4995588;28;20097;-47
2022/07/23 11:34:50;;;;;;;7.15;5.13;;;28.00;52.80;;;;;;4991110;28;20030;-48
2022/07/23 11:37:39;;;;;;;5.55;4.40;;;28.00;52.90;;;;;;4998156;28;20029;-47
2022/07/23 11:40:08;;;;;;;6.03;4.22;;;28.00;52.70;;;;;;4999671;28;20034;-47
2022/07/23 11:43:10;;;;;;;5.68;4.00;;;28.00;52.60;;;;;;5003755;28;20034;-47
2022/07/23 11:45:39;;;;;;;6.55;4.43;;;28.00;53.00;;;;;;4922661;29;20373;-48
2022/07/23 11:48:06;;;;;;;6.18;4.70;;;28.00;52.90;;;;;;4988022;28;20034;-47
2022/07/23 11:50:32;;;;;;;6.75;4.65;;;28.00;52.90;;;;;;5003722;28;20033;-47
2022/07/23 11:52:58;;;;;;;5.90;4.53;;;28.00;52.70;;;;;;5003992;28;20084;-47
2022/07/23 11:55:24;;;;;;;5.88;4.40;;;28.00;53.00;;;;;;5003700;28;20022;-47
2022/07/23 11:57:52;;;;;;;7.22;4.50;;;28.00;53.10;;;;;;5003293;28;20030;-47
2022/07/23 12:00:23;;;;;;;6.38;4.93;;;28.00;53.10;;;;;;5003347;28;20105;-47
2022/07/23 12:02:53;;;;;;;5.18;4.50;;;28.00;53.20;;;;;;5002850;28;20118;-47
2022/07/23 12:05:20;;;;;;;5.00;3.90;;;28.00;53.00;;;;;;5003300;28;20034;-48
2022/07/23 12:07:50;;;;;;;6.05;4.47;;;28.10;52.80;;;;;;5002476;28;20022;-48
2022/07/23 12:10:35;;;;;;;21.27;7.50;;;28.10;52.20;;;;;;4994998;28;20490;-47
2022/07/23 12:13:07;;;;;;;44.20;13.93;;;28.10;52.10;;;;;;4997898;28;20112;-47
2022/07/23 12:15:38;;;;;;;36.00;12.23;;;28.10;52.30;;;;;;5001161;28;20113;-47
2022/07/23 12:18:06;;;;;;;25.02;10.10;;;28.10;52.80;;;;;;5001766;28;20025;-46
2022/07/23 12:20:41;;;;;;;21.33;9.73;;;28.10;53.30;;;;;;4995886;28;20025;-47
2022/07/23 12:23:10;;;;;;;14.98;8.30;;;28.10;53.00;;;;;;5001806;28;20030;-47
2022/07/23 12:25:39;;;;;;;15.85;8.18;;;28.10;53.20;;;;;;5000583;28;20593;-47
2022/07/23 12:28:11;;;;;;;16.30;8.30;;;28.10;53.00;;;;;;5000228;28;20038;-46
2022/07/23 12:30:42;;;;;;;16.08;7.85;;;28.10;53.00;;;;;;5002068;28;20030;-47
2022/07/23 12:33:11;;;;;;;15.82;7.40;;;28.10;52.90;;;;;;5001377;28;20109;-47
2022/07/23 12:35:45;;;;;;;18.50;7.78;;;28.10;52.80;;;;;;5002182;28;20022;-48
2022/07/23 12:38:16;;;;;;;9.98;7.07;;;28.20;53.00;;;;;;5001887;28;20018;-47
2022/07/23 12:40:55;;;;;;;9.48;6.43;;;28.20;53.70;;;;;;5000699;28;20662;-48
2022/07/23 12:43:21;;;;;;;11.88;6.70;;;28.20;53.30;;;;;;5000047;28;20038;-49
2022/07/23 12:46:18;;;;;;;9.10;6.78;;;28.20;54.10;;;;;;5002217;28;20026;-50
2022/07/23 12:48:49;;;;;;;8.77;5.93;;;28.20;53.90;;;;;;4989927;28;20034;-48
2022/07/23 12:51:18;;;;;;;9.73;6.05;;;28.20;53.50;;;;;;5002173;28;20259;-47
2022/07/23 12:53:47;;;;;;;12.48;6.93;;;28.20;53.60;;;;;;5001020;28;20026;-48
2022/07/23 12:56:19;;;;;;;9.70;6.55;;;28.30;54.20;;;;;;4999012;28;20025;-48
2022/07/23 12:58:54;;;;;;;9.45;6.50;;;28.20;53.90;;;;;;5001329;28;20038;-48